Portland, Maine
Current Conditions -  °F | °C
As of 3:51 AM on Sunday 26 Oct 2014 (Local Time) from KPWM Reporting Station
Clear Clear  
Wind Chill: 45°   Ceiling: Unl
Heat Index: 47°   Visibility: 10mi
Dew Point: 44°   Wind: 5mph
Humidity: 90%   Direction: 290°WNW
Pressure: 29.4"   Gusts: NA
Location:  43.66°N, 70.26°W
Report Text: KPWM 260751Z AUTO 29004KT 10SM CLR 08/07 A2940 RMK AO2 SLP955 T00830067
Loading
Personal Weather Stations






























Interactive Weather Map
Tropical Storm Tracking
New forecast layout! Learn more

10-Day Weather Forecast

Advertisements
Track Severe Weather on mobile